Hawkesbury, Canada
Current Conditions -  °F | °C
As of 10:00 PM on Thursday 18 Dec 2014 (Local Time) from CYMX Reporting Station
Overcast Overcast  
Wind Chill: 23°   Ceiling: 2100
Heat Index: 28°   Visibility: 25mi
Dew Point: 21°   Wind: 5mph
Humidity: 74%   Direction: 310°NW
Pressure: 29.94"   Gusts: NA
Location:  45.61°N, 74.61°W
Report Text: CYMX 190300Z 31004KT 25SM BKN021 OVC050 M02/M06 A2994 RMK SC7SC1 SLP144
Loading
Personal Weather Stations






























Interactive Weather Map New forecast layout! Learn more

10-Day Weather Forecast

Advertisements
Track Severe Weather on mobile